createdAt,value
2019-04-07T00:26:42.011Z,55.88
2019-04-07T00:29:28.864Z,52.05
2019-04-07T00:32:15.485Z,59.90
2019-04-07T00:35:03.079Z,59.58
2019-04-07T00:37:50.332Z,59.30
2019-04-07T00:40:37.079Z,55.52
2019-04-07T00:43:24.234Z,58.23
2019-04-07T00:46:11.381Z,55.50
2019-04-07T00:48:58.153Z,58.98
2019-04-07T00:51:44.745Z,60.00
2019-04-07T00:54:32.622Z,59.38
2019-04-07T00:57:19.891Z,56.63
2019-04-07T01:00:07.100Z,63.02
2019-04-07T01:02:54.157Z,58.02
2019-04-07T01:05:43.247Z,59.30
2019-04-07T01:08:32.591Z,59.15
2019-04-07T01:11:20.037Z,60.75
2019-04-07T01:14:07.029Z,61.88
2019-04-07T01:16:54.526Z,59.35
2019-04-07T01:19:41.704Z,58.80
2019-04-07T01:22:29.034Z,60.92
2019-04-07T01:25:15.969Z,61.13
2019-04-07T01:28:03.141Z,60.88
2019-04-07T01:30:51.588Z,61.08
2019-04-07T01:33:38.970Z,61.13
2019-04-07T01:36:26.474Z,60.70
2019-04-07T01:39:13.186Z,60.38
2019-04-07T01:42:00.372Z,59.48
2019-04-07T01:44:47.282Z,62.05
2019-04-07T01:47:34.475Z,61.70
2019-04-07T01:50:22.096Z,58.68
2019-04-07T01:53:09.159Z,60.92
2019-04-07T01:55:56.493Z,60.90
2019-04-07T01:58:44.808Z,62.70
2019-04-07T02:01:31.326Z,61.00
2019-04-07T02:04:19.190Z,62.50
2019-04-07T02:07:06.284Z,63.87
2019-04-07T02:09:53.330Z,63.08
2019-04-07T02:12:40.366Z,60.17
2019-04-07T02:15:26.987Z,65.20
2019-04-07T02:21:08.541Z,60.38
2019-04-07T02:55:01.092Z,67.35
2019-04-07T03:04:20.419Z,59.42
2019-04-07T03:07:14.150Z,62.50
2019-04-07T04:42:44.319Z,59.33
2019-04-07T05:41:26.197Z,50.95
2019-04-07T09:05:00.280Z,33.88
2019-04-07T11:05:21.749Z,24.75
2019-04-07T11:08:08.958Z,25.60
2019-04-07T11:10:56.169Z,21.27
2019-04-07T11:13:42.907Z,21.75
2019-04-07T11:16:31.219Z,20.55
2019-04-07T11:19:18.776Z,18.23
2019-04-07T13:13:18.696Z,12.70
2019-04-07T15:16:36.995Z,12.15
2019-04-07T17:40:58.489Z,20.70
2019-04-07T19:44:34.889Z,13.60
2019-04-07T19:47:15.134Z,15.38
2019-04-07T19:50:02.747Z,13.85
2019-04-07T19:52:49.866Z,14.30
2019-04-07T19:55:36.896Z,15.03
2019-04-07T19:58:24.316Z,14.55
2019-04-07T20:01:10.965Z,14.25
2019-04-07T20:07:00.611Z,14.63
2019-04-07T20:09:48.423Z,13.55
2019-04-07T20:12:38.235Z,13.93
2019-04-07T20:15:24.102Z,13.48
2019-04-07T20:18:11.109Z,14.35
2019-04-07T20:20:58.493Z,14.95
2019-04-07T20:23:45.946Z,13.00
2019-04-07T20:26:33.426Z,14.55
2019-04-07T20:29:20.560Z,12.23
2019-04-07T20:32:07.313Z,13.65
2019-04-07T20:34:54.598Z,13.60
2019-04-07T20:37:42.209Z,12.95
2019-04-07T20:40:29.564Z,13.18
2019-04-07T20:43:16.501Z,13.18
2019-04-07T20:46:04.633Z,13.38
2019-04-07T20:48:51.907Z,12.10
2019-04-07T20:51:31.625Z,13.10
2019-04-07T20:54:17.347Z,12.90
2019-04-07T21:48:49.412Z,12.00
2019-04-07T21:51:29.071Z,11.45
2019-04-07T21:54:16.011Z,12.03
2019-04-07T21:57:02.818Z,11.33
2019-04-07T22:00:00.715Z,11.95
2019-04-07T22:02:35.770Z,12.15
2019-04-07T22:05:23.930Z,12.88
2019-04-07T22:08:17.364Z,14.28
2019-04-07T22:10:49.938Z,12.05
2019-04-07T22:13:17.043Z,12.58
2019-04-07T22:15:54.223Z,11.73
2019-04-07T22:18:17.353Z,14.58
2019-04-07T22:20:47.870Z,12.40
2019-04-07T22:23:17.127Z,13.25
2019-04-07T22:25:54.029Z,13.45
2019-04-07T22:28:27.636Z,11.97
2019-04-07T22:30:55.242Z,13.03
2019-04-07T22:33:26.047Z,12.43
2019-04-07T22:35:55.312Z,13.38
2019-04-07T22:38:25.044Z,12.35
2019-04-07T22:40:54.807Z,13.50
2019-04-07T22:43:24.840Z,12.30
2019-04-07T22:46:04.117Z,13.40
2019-04-07T22:48:26.800Z,14.35
2019-04-07T22:50:55.916Z,12.90
2019-04-07T22:53:28.503Z,14.07
2019-04-07T22:55:55.756Z,12.78
2019-04-07T22:58:24.694Z,13.43
2019-04-07T23:00:54.288Z,13.62
2019-04-07T23:03:23.987Z,14.13
2019-04-07T23:05:53.366Z,14.55
2019-04-07T23:08:22.571Z,14.55
2019-04-07T23:10:51.412Z,14.78
2019-04-07T23:13:20.428Z,14.13
2019-04-07T23:15:50.258Z,13.70
2019-04-07T23:18:20.729Z,14.00
2019-04-07T23:20:50.196Z,14.45
2019-04-07T23:23:19.149Z,15.28
2019-04-07T23:25:48.160Z,15.60
2019-04-07T23:28:17.180Z,16.70
2019-04-07T23:30:47.120Z,17.80
2019-04-07T23:33:16.416Z,16.67
2019-04-07T23:35:45.418Z,16.30
2019-04-07T23:38:14.347Z,16.57
2019-04-07T23:40:43.340Z,17.42
2019-04-07T23:43:12.969Z,15.32
2019-04-07T23:45:42.303Z,15.10
2019-04-07T23:48:11.306Z,16.95
2019-04-07T23:50:40.992Z,17.42
2019-04-07T23:53:47.100Z,14.78
2019-04-07T23:56:16.388Z,16.15
2019-04-07T23:58:45.652Z,17.35
